Newland, NC (28657)

6:07 AM EST on January 19, 2017 (GMT -0500)
GlenView | | Change Station

Elev 3871 ft 36.13 °N, 81.93 °W | Updated 10 minutes ago

Partly Cloudy
Partly Cloudy
43.0 °F
Feels Like 43 °F
N
3.0
Wind Variable Wind from SSW
Gusts 5.0 mph

Today
High -- | Low -- °F
--% Chance of Precip.
Yesterday
High -- | Low -- °F
Precip. -- in
Pressure 30.06 in
Visibility 10.0 miles
Clouds Clear
Windchill 43 °F
Dew Point 22 °F
Humidity 44%
Rainfall 0.00 in
Snow Depth Not available.
7:36 AM 5:41 PM
Waning Gibbous, 54% visible
METAR KTNB 191055Z AUTO 00000KT 10SM CLR 06/M04 A3006 RMK AO2 T00561036
Pressure 30.06 in
Visibility 10.0 miles
Clouds Clear
Windchill 43 °F
Dew Point 22 °F
Humidity 44%
Rainfall 0.00 in
Snow Depth Not available.
7:36 AM 5:41 PM
Waning Gibbous, 54% visible
METAR KTNB 191055Z AUTO 00000KT 10SM CLR 06/M04 A3006 RMK AO2 T00561036

Get Your Daily Forecast Email!

Thanks for signing up!

Be on the lookout for a verification email in your inbox.

You'll start receiving the daily forecast at 8 AM.

×

10-Day Weather Forecast

Almanac

Astronomy

Jan. 19, 2017 Rise Set
Actual Time
Civil Twilight
Nautical Twilight
Astronomical Twilight
Moon
Length of Visible Light
Length of Day
Tomorrow will be .
, % of the Moon is Illuminated

Today's Extremes

State Highs State Lows

Community

WunderPhotos

Upload Photos

1,962,540 photos uploaded!

WunderBlog® & News

Nearby

Air Quality

  Air Quality AQ Index Pollutant
Not available.

Snow Depth

Station Depth Elevation

Earthquake Activity

City Distance Mag. Time & Date
Minimum magnitude displayed is 2.5.

Coastal Water Temperatures

Place Temperature

Stations

Nearby Weather Stations

Station Location Temp. Windchill Dew Point Humidity Wind Precip. Elev Updated Type
                   

Watches & Warnings

There are currently no watches in effect.